Accueil
METAR-TAF:

METAR-TAF

Aéroports :

Holbeach, Angleterre

RAF

latitude: 52-52N, longitude: 000-09E, altitude: 3 m

Observation

Le bulletin a été fait il y a 2 heures et 46 minutes, à 19:50 UTC
Vent 3 kt de ouest/nord-ouest
Température 7°C
Humidité 93%
Pression 1016 hPa
Visibilité 10 km ou plus
Nuages épars à une hauteur de 3500 ft
Nuages fragmentés à une hauteur de 6000 ft

METAR: EGYH 271950Z 30003KT 9999 SCT035 BKN060 07/06 Q1016 BLU

Heure: 23:36 (22:36 UTC)


TAF: absent

Observations et prévisions météorologiques de plus de 4000 aéroports (messages METAR et TAF).

Les stations disponibles sont représentées par des disques jaunes et rouges sur la carte.

Passer la souris dessus pour voir le nom de la station.

Cliquer dessus pour voir les observations et prévisions météorologiques.

Pour changer de carte: cliquez sur les boutons verts avec une croix noire pour zoomer, sur le bouton vert avec un tiret pour effectuer un zoom arrière, ou sur les flèches vertes pour les cartes adjacentes.


METAR-TAF: